sensor_id;sensor_type;location;lat;lon;timestamp;temperature;humidity
14775;DHT22;7479;47.042;15.160;2022-10-24T08:15:15;13.20;99.90
14775;DHT22;7479;47.042;15.160;2022-10-24T08:20:10;13.20;99.90
14775;DHT22;7479;47.042;15.160;2022-10-24T08:25:05;13.40;99.90
14775;DHT22;7479;47.042;15.160;2022-10-24T08:30:01;13.60;99.90
14775;DHT22;7479;47.042;15.160;2022-10-24T08:34:56;13.70;99.90
14775;DHT22;7479;47.042;15.160;2022-10-24T08:39:50;13.80;99.90
14775;DHT22;7479;47.042;15.160;2022-10-24T08:44:46;13.90;99.90
14775;DHT22;7479;47.042;15.160;2022-10-24T08:49:43;14.00;99.90
14775;DHT22;7479;47.042;15.160;2022-10-24T08:54:44;14.20;99.90
14775;DHT22;7479;47.042;15.160;2022-10-24T08:59:39;14.40;99.90
14775;DHT22;7479;47.042;15.160;2022-10-24T09:04:38;14.70;99.90
14775;DHT22;7479;47.042;15.160;2022-10-24T09:09:37;14.90;99.90
14775;DHT22;7479;47.042;15.160;2022-10-24T09:14:36;15.00;99.90
14775;DHT22;7479;47.042;15.160;2022-10-24T09:19:31;15.10;99.90
14775;DHT22;7479;47.042;15.160;2022-10-24T09:24:33;15.30;99.90
14775;DHT22;7479;47.042;15.160;2022-10-24T09:29:30;15.70;99.90
14775;DHT22;7479;47.042;15.160;2022-10-24T09:34:25;16.20;99.90
14775;DHT22;7479;47.042;15.160;2022-10-24T09:39:26;16.60;99.90
14775;DHT22;7479;47.042;15.160;2022-10-24T09:44:38;16.90;99.90
14775;DHT22;7479;47.042;15.160;2022-10-24T09:49:38;17.20;99.90
14775;DHT22;7479;47.042;15.160;2022-10-24T09:54:34;17.70;99.90
14775;DHT22;7479;47.042;15.160;2022-10-24T09:59:34;18.00;99.90
14775;DHT22;7479;47.042;15.160;2022-10-24T10:04:28;18.50;99.90
14775;DHT22;7479;47.042;15.160;2022-10-24T10:09:26;18.70;99.90
14775;DHT22;7479;47.042;15.160;2022-10-24T10:14:23;18.80;99.90
14775;DHT22;7479;47.042;15.160;2022-10-24T10:19:19;18.80;99.90
14775;DHT22;7479;47.042;15.160;2022-10-24T10:24:25;18.80;99.90
14775;DHT22;7479;47.042;15.160;2022-10-24T10:29:21;18.80;99.90
14775;DHT22;7479;47.042;15.160;2022-10-24T10:34:23;18.80;99.90
14775;DHT22;7479;47.042;15.160;2022-10-24T10:44:53;19.10;99.90
14775;DHT22;7479;47.042;15.160;2022-10-24T10:49:53;19.00;99.90
14775;DHT22;7479;47.042;15.160;2022-10-24T10:55:07;19.10;99.90
14775;DHT22;7479;47.042;15.160;2022-10-24T11:00:10;19.50;99.90
14775;DHT22;7479;47.042;15.160;2022-10-24T11:05:15;19.90;99.90
14775;DHT22;7479;47.042;15.160;2022-10-24T11:10:16;20.20;99.90
14775;DHT22;7479;47.042;15.160;2022-10-24T11:15:18;20.20;99.90
14775;DHT22;7479;47.042;15.160;2022-10-24T11:20:17;20.20;99.90
14775;DHT22;7479;47.042;15.160;2022-10-24T11:25:20;20.10;99.90
14775;DHT22;7479;47.042;15.160;2022-10-24T11:30:19;20.30;99.90
14775;DHT22;7479;47.042;15.160;2022-10-24T11:35:23;20.50;99.90
14775;DHT22;7479;47.042;15.160;2022-10-24T11:40:21;20.30;99.90
14775;DHT22;7479;47.042;15.160;2022-10-24T11:45:18;20.10;99.90
14775;DHT22;7479;47.042;15.160;2022-10-24T11:50:19;20.70;99.90
14775;DHT22;7479;47.042;15.160;2022-10-24T11:55:19;21.50;99.90
14775;DHT22;7479;47.042;15.160;2022-10-24T12:00:19;21.80;99.90
14775;DHT22;7479;47.042;15.160;2022-10-24T12:05:25;21.80;99.90
14775;DHT22;7479;47.042;15.160;2022-10-24T12:10:29;21.80;99.90
14775;DHT22;7479;47.042;15.160;2022-10-24T12:15:37;21.30;99.90
14775;DHT22;7479;47.042;15.160;2022-10-24T12:20:37;20.90;99.90
14775;DHT22;7479;47.042;15.160;2022-10-24T12:25:33;20.50;99.90
14775;DHT22;7479;47.042;15.160;2022-10-24T12:30:30;20.10;99.90
14775;DHT22;7479;47.042;15.160;2022-10-24T12:35:47;19.80;99.90
14775;DHT22;7479;47.042;15.160;2022-10-24T12:40:52;19.60;99.90
14775;DHT22;7479;47.042;15.160;2022-10-24T12:45:49;19.60;99.90
14775;DHT22;7479;47.042;15.160;2022-10-24T12:51:05;19.70;99.90
14775;DHT22;7479;47.042;15.160;2022-10-24T12:56:18;20.10;99.90
14775;DHT22;7479;47.042;15.160;2022-10-24T13:01:25;20.50;99.90
14775;DHT22;7479;47.042;15.160;2022-10-24T13:06:25;20.50;99.90
14775;DHT22;7479;47.042;15.160;2022-10-24T13:11:31;21.20;99.90
14775;DHT22;7479;47.042;15.160;2022-10-24T13:16:35;23.20;99.90
14775;DHT22;7479;47.042;15.160;2022-10-24T13:21:35;24.70;99.90
14775;DHT22;7479;47.042;15.160;2022-10-24T13:26:40;25.90;99.10
14775;DHT22;7479;47.042;15.160;2022-10-24T13:31:44;26.80;97.30
14775;DHT22;7479;47.042;15.160;2022-10-24T13:36:38;26.70;96.00
14775;DHT22;7479;47.042;15.160;2022-10-24T13:41:38;26.60;95.30
14775;DHT22;7479;47.042;15.160;2022-10-24T13:46:39;25.40;96.70
14775;DHT22;7479;47.042;15.160;2022-10-24T13:51:42;25.40;97.70
14775;DHT22;7479;47.042;15.160;2022-10-24T13:56:38;26.10;97.10
14775;DHT22;7479;47.042;15.160;2022-10-24T14:01:35;26.30;96.60
14775;DHT22;7479;47.042;15.160;2022-10-24T14:06:33;26.80;95.90
14775;DHT22;7479;47.042;15.160;2022-10-24T14:11:28;26.80;95.60
14775;DHT22;7479;47.042;15.160;2022-10-24T14:16:23;27.00;94.60
14775;DHT22;7479;47.042;15.160;2022-10-24T14:21:19;27.40;94.60
14775;DHT22;7479;47.042;15.160;2022-10-24T14:26:17;27.50;93.80
14775;DHT22;7479;47.042;15.160;2022-10-24T14:31:19;26.20;94.70
14775;DHT22;7479;47.042;15.160;2022-10-24T14:36:14;24.70;97.20
14775;DHT22;7479;47.042;15.160;2022-10-24T14:41:09;23.20;99.80
14775;DHT22;7479;47.042;15.160;2022-10-24T14:46:31;21.70;99.90
14775;DHT22;7479;47.042;15.160;2022-10-24T14:51:27;20.90;99.90
14775;DHT22;7479;47.042;15.160;2022-10-24T14:56:32;20.60;99.90
14775;DHT22;7479;47.042;15.160;2022-10-24T15:01:28;20.40;99.90
14775;DHT22;7479;47.042;15.160;2022-10-24T15:06:24;20.20;99.90
14775;DHT22;7479;47.042;15.160;2022-10-24T15:11:20;20.00;99.90
14775;DHT22;7479;47.042;15.160;2022-10-24T15:16:22;19.70;99.90
14775;DHT22;7479;47.042;15.160;2022-10-24T15:21:21;19.50;99.90
14775;DHT22;7479;47.042;15.160;2022-10-24T15:26:19;19.20;99.90
14775;DHT22;7479;47.042;15.160;2022-10-24T15:31:16;18.80;99.90
14775;DHT22;7479;47.042;15.160;2022-10-24T15:36:17;18.50;99.90
14775;DHT22;7479;47.042;15.160;2022-10-24T15:41:13;18.30;99.90
14775;DHT22;7479;47.042;15.160;2022-10-24T15:46:07;18.30;99.90
14775;DHT22;7479;47.042;15.160;2022-10-24T15:51:01;18.10;99.90
14775;DHT22;7479;47.042;15.160;2022-10-24T15:55:56;18.00;99.90
14775;DHT22;7479;47.042;15.160;2022-10-24T16:00:51;17.80;99.90
14775;DHT22;7479;47.042;15.160;2022-10-24T16:05:47;17.60;99.90
14775;DHT22;7479;47.042;15.160;2022-10-24T16:10:43;17.40;99.90
14775;DHT22;7479;47.042;15.160;2022-10-24T16:15:38;17.20;99.90
14775;DHT22;7479;47.042;15.160;2022-10-24T16:20:34;17.00;99.90
14775;DHT22;7479;47.042;15.160;2022-10-24T16:25:31;16.90;99.90
14775;DHT22;7479;47.042;15.160;2022-10-24T16:30:32;16.80;99.90
14775;DHT22;7479;47.042;15.160;2022-10-24T16:35:31;16.70;99.90
14775;DHT22;7479;47.042;15.160;2022-10-24T16:40:44;16.50;99.90
14775;DHT22;7479;47.042;15.160;2022-10-24T16:45:43;16.30;99.90
14775;DHT22;7479;47.042;15.160;2022-10-24T16:51:01;16.30;99.90
14775;DHT22;7479;47.042;15.160;2022-10-24T16:56:00;16.20;99.90
14775;DHT22;7479;47.042;15.160;2022-10-24T17:01:01;16.10;99.90
14775;DHT22;7479;47.042;15.160;2022-10-24T17:05:59;16.00;99.90
14775;DHT22;7479;47.042;15.160;2022-10-24T17:10:55;15.80;99.90
14775;DHT22;7479;47.042;15.160;2022-10-24T17:15:53;15.70;99.90
14775;DHT22;7479;47.042;15.160;2022-10-24T17:20:47;15.60;99.90
14775;DHT22;7479;47.042;15.160;2022-10-24T17:25:42;15.60;99.90
14775;DHT22;7479;47.042;15.160;2022-10-24T17:30:36;15.50;99.90
14775;DHT22;7479;47.042;15.160;2022-10-24T17:35:35;15.50;99.90
14775;DHT22;7479;47.042;15.160;2022-10-24T17:40:33;15.40;99.90
14775;DHT22;7479;47.042;15.160;2022-10-24T17:45:32;15.50;99.90
14775;DHT22;7479;47.042;15.160;2022-10-24T17:50:26;15.40;99.90
14775;DHT22;7479;47.042;15.160;2022-10-24T17:55:23;15.40;99.90
14775;DHT22;7479;47.042;15.160;2022-10-24T18:00:38;15.50;99.90
14775;DHT22;7479;47.042;15.160;2022-10-24T18:05:32;15.50;99.90
14775;DHT22;7479;47.042;15.160;2022-10-24T18:10:31;15.20;99.90
14775;DHT22;7479;47.042;15.160;2022-10-24T18:15:25;15.10;99.90
14775;DHT22;7479;47.042;15.160;2022-10-24T18:20:19;15.30;99.90
14775;DHT22;7479;47.042;15.160;2022-10-24T18:25:15;15.30;99.90
14775;DHT22;7479;47.042;15.160;2022-10-24T18:30:16;15.20;99.90
14775;DHT22;7479;47.042;15.160;2022-10-24T18:35:10;15.10;99.90
14775;DHT22;7479;47.042;15.160;2022-10-24T18:40:06;15.10;99.90
14775;DHT22;7479;47.042;15.160;2022-10-24T18:45:00;15.00;99.90
